San Luis Valley Regional Bergman Field Alamosa US
ICAO: KALS
IATA: ALS
Category: Medium
Scheduled Services: No

Elevation: 7539 ft
TransAlt. 18000 ft.

Airport Communications:
ASOS:135.175
DENVER CNTR:128.375
DENVER RDO:122.15
CTAF/UNICOM:122.8

KALS Zoom In..

Runways:

(A) RW 02 length 8519 ft width 100 ft
ILS 111.90 / hdg 23

(B) RW 20 length 8519 ft width 100 ft
---- / hdg 203

Location; KALS
Day. 07 / Time. 18.52 Zulu
* Altimeter: 30.14
* Temperature: 18° c. 64.4°f.
* Wind from: 180° Speed 08 kn.
Dewpoint: -20° c.
Visibility: 10 Statute Miles.
Clouds: Clear (automated report).

KALS 071852Z AUTO 18008KT 10SM CLR 18/M20 A3014 RMK AO2 SLP148 T01781200


Wind From 180°
Speed 08 kn.

 
 
jpsmedia worldairports.se 2020   terms of use